sensor_id;sensor_type;location;lat;lon;timestamp;pressure;altitude;pressure_sealevel;temperature;humidity
67517;BME280;54359;59.124;37.910;2023-02-14T00:01:09;98587.25;;;0.70;82.45
67517;BME280;54359;59.124;37.910;2023-02-14T00:03:36;98598.19;;;0.71;81.79
67517;BME280;54359;59.124;37.910;2023-02-14T00:06:10;98602.38;;;0.69;81.86
67517;BME280;54359;59.124;37.910;2023-02-14T00:08:36;98609.22;;;0.73;81.81
67517;BME280;54359;59.124;37.910;2023-02-14T00:11:03;98606.69;;;0.73;81.95
67517;BME280;54359;59.124;37.910;2023-02-14T00:13:30;98616.75;;;0.71;81.64
67517;BME280;54359;59.124;37.910;2023-02-14T00:15:55;98606.63;;;0.70;82.13
67517;BME280;54359;59.124;37.910;2023-02-14T00:18:21;98612.53;;;0.70;81.96
67517;BME280;54359;59.124;37.910;2023-02-14T00:20:47;98609.94;;;0.69;81.82
67517;BME280;54359;59.124;37.910;2023-02-14T00:23:12;98625.91;;;0.66;81.83
67517;BME280;54359;59.124;37.910;2023-02-14T00:25:38;98619.13;;;0.65;81.98
67517;BME280;54359;59.124;37.910;2023-02-14T00:28:04;98624.16;;;0.65;81.91
67517;BME280;54359;59.124;37.910;2023-02-14T00:30:30;98622.53;;;0.66;82.16
67517;BME280;54359;59.124;37.910;2023-02-14T00:32:55;98628.44;;;0.66;81.95
67517;BME280;54359;59.124;37.910;2023-02-14T00:35:21;98630.13;;;0.67;81.83
67517;BME280;54359;59.124;37.910;2023-02-14T00:37:47;98637.69;;;0.66;81.70
67517;BME280;54359;59.124;37.910;2023-02-14T00:40:13;98639.44;;;0.68;81.96
67517;BME280;54359;59.124;37.910;2023-02-14T00:42:39;98644.56;;;0.70;82.17
67517;BME280;54359;59.124;37.910;2023-02-14T00:45:05;98647.03;;;0.68;81.81
67517;BME280;54359;59.124;37.910;2023-02-14T00:47:32;98653.84;;;0.71;82.39
67517;BME280;54359;59.124;37.910;2023-02-14T00:49:58;98637.81;;;0.70;82.00
67517;BME280;54359;59.124;37.910;2023-02-14T00:52:29;98663.16;;;0.72;82.25
67517;BME280;54359;59.124;37.910;2023-02-14T00:54:56;98647.09;;;0.70;81.97
67517;BME280;54359;59.124;37.910;2023-02-14T00:57:23;98660.56;;;0.70;81.94
67517;BME280;54359;59.124;37.910;2023-02-14T00:59:48;98658.09;;;0.72;81.94
67517;BME280;54359;59.124;37.910;2023-02-14T01:02:14;98648.72;;;0.68;81.94
67517;BME280;54359;59.124;37.910;2023-02-14T01:04:40;98667.31;;;0.70;82.31
67517;BME280;54359;59.124;37.910;2023-02-14T01:07:05;98641.84;;;0.64;82.44
67517;BME280;54359;59.124;37.910;2023-02-14T01:09:31;98671.53;;;0.71;82.37
67517;BME280;54359;59.124;37.910;2023-02-14T01:12:00;98664.72;;;0.68;82.21
67517;BME280;54359;59.124;37.910;2023-02-14T01:14:26;98663.88;;;0.68;82.28
67517;BME280;54359;59.124;37.910;2023-02-14T01:16:52;98663.06;;;0.69;82.50
67517;BME280;54359;59.124;37.910;2023-02-14T01:19:17;98685.81;;;0.69;82.31
67517;BME280;54359;59.124;37.910;2023-02-14T01:22:02;98668.13;;;0.69;81.82
67517;BME280;54359;59.124;37.910;2023-02-14T01:24:28;98671.38;;;0.65;81.80
67517;BME280;54359;59.124;37.910;2023-02-14T01:26:53;98685.75;;;0.66;82.10
67517;BME280;54359;59.124;37.910;2023-02-14T01:29:19;98690.69;;;0.63;81.95
67517;BME280;54359;59.124;37.910;2023-02-14T01:31:45;98687.22;;;0.59;81.99
67517;BME280;54359;59.124;37.910;2023-02-14T01:34:13;98688.88;;;0.58;82.38
67517;BME280;54359;59.124;37.910;2023-02-14T01:36:39;98686.25;;;0.54;82.02
67517;BME280;54359;59.124;37.910;2023-02-14T01:39:07;98700.72;;;0.59;82.23
67517;BME280;54359;59.124;37.910;2023-02-14T01:41:35;98706.59;;;0.58;82.62
67517;BME280;54359;59.124;37.910;2023-02-14T01:46:38;98699.00;;;0.58;82.45
67517;BME280;54359;59.124;37.910;2023-02-14T01:49:10;98702.38;;;0.57;82.28
67517;BME280;54359;59.124;37.910;2023-02-14T01:51:42;98697.31;;;0.57;82.74
67517;BME280;54359;59.124;37.910;2023-02-14T01:54:09;98698.22;;;0.61;82.32
67517;BME280;54359;59.124;37.910;2023-02-14T01:56:40;98713.38;;;0.59;82.41
67517;BME280;54359;59.124;37.910;2023-02-14T01:59:12;98716.72;;;0.58;82.22
67517;BME280;54359;59.124;37.910;2023-02-14T02:01:42;98711.59;;;0.57;82.50
67517;BME280;54359;59.124;37.910;2023-02-14T02:04:13;98713.28;;;0.56;82.18
67517;BME280;54359;59.124;37.910;2023-02-14T02:06:51;98729.28;;;0.55;82.24
67517;BME280;54359;59.124;37.910;2023-02-14T02:09:25;98729.94;;;0.50;82.60
67517;BME280;54359;59.124;37.910;2023-02-14T02:11:54;98727.47;;;0.51;82.56
67517;BME280;54359;59.124;37.910;2023-02-14T02:14:21;98720.59;;;0.47;82.30
67517;BME280;54359;59.124;37.910;2023-02-14T02:39:14;98759.50;;;0.25;82.11
67517;BME280;54359;59.124;37.910;2023-02-14T02:44:26;98756.72;;;0.17;82.04
67517;BME280;54359;59.124;37.910;2023-02-14T02:47:17;98771.19;;;0.22;82.28
67517;BME280;54359;59.124;37.910;2023-02-14T02:49:57;98766.03;;;0.18;82.18
67517;BME280;54359;59.124;37.910;2023-02-14T02:52:56;98759.19;;;0.14;81.96
67517;BME280;54359;59.124;37.910;2023-02-14T02:58:23;98755.56;;;0.08;82.57
67517;BME280;54359;59.124;37.910;2023-02-14T03:00:52;98754.00;;;0.11;82.58
67517;BME280;54359;59.124;37.910;2023-02-14T03:03:22;98763.25;;;0.11;82.29
67517;BME280;54359;59.124;37.910;2023-02-14T03:06:07;98759.31;;;0.19;82.54
67517;BME280;54359;59.124;37.910;2023-02-14T03:08:33;98773.72;;;0.22;82.73
67517;BME280;54359;59.124;37.910;2023-02-14T03:11:00;98769.69;;;0.27;82.63
67517;BME280;54359;59.124;37.910;2023-02-14T03:16:31;98779.25;;;0.37;82.42
67517;BME280;54359;59.124;37.910;2023-02-14T03:22:20;98780.19;;;0.39;82.48
67517;BME280;54359;59.124;37.910;2023-02-14T03:24:59;98794.50;;;0.40;82.92
67517;BME280;54359;59.124;37.910;2023-02-14T03:27:34;98802.03;;;0.38;82.70
67517;BME280;54359;59.124;37.910;2023-02-14T03:30:25;98780.72;;;0.30;82.76
67517;BME280;54359;59.124;37.910;2023-02-14T03:33:02;98796.19;;;0.39;82.70
67517;BME280;54359;59.124;37.910;2023-02-14T03:35:33;98801.31;;;0.41;82.65
67517;BME280;54359;59.124;37.910;2023-02-14T03:40:51;98809.69;;;0.40;82.62
67517;BME280;54359;59.124;37.910;2023-02-14T03:43:33;98813.94;;;0.41;82.67
67517;BME280;54359;59.124;37.910;2023-02-14T03:48:35;98785.44;;;0.19;82.82
67517;BME280;54359;59.124;37.910;2023-02-14T03:51:03;98818.88;;;0.38;82.49
67517;BME280;54359;59.124;37.910;2023-02-14T03:53:34;98831.66;;;0.43;82.96
67517;BME280;54359;59.124;37.910;2023-02-14T03:56:09;98819.72;;;0.38;83.08
67517;BME280;54359;59.124;37.910;2023-02-14T03:58:39;98833.34;;;0.42;83.04
67517;BME280;54359;59.124;37.910;2023-02-14T04:04:20;98837.34;;;0.35;82.81
67517;BME280;54359;59.124;37.910;2023-02-14T04:06:47;98835.53;;;0.31;83.03
67517;BME280;54359;59.124;37.910;2023-02-14T04:09:13;98846.44;;;0.30;82.75
67517;BME280;54359;59.124;37.910;2023-02-14T04:11:39;98832.75;;;0.24;82.77
67517;BME280;54359;59.124;37.910;2023-02-14T04:14:05;98843.69;;;0.24;82.99
67517;BME280;54359;59.124;37.910;2023-02-14T04:16:31;98842.84;;;0.24;82.69
67517;BME280;54359;59.124;37.910;2023-02-14T04:19:16;98862.22;;;0.23;82.68
67517;BME280;54359;59.124;37.910;2023-02-14T04:21:51;98856.84;;;0.14;82.77
67517;BME280;54359;59.124;37.910;2023-02-14T04:24:18;98858.78;;;0.21;82.76
67517;BME280;54359;59.124;37.910;2023-02-14T04:26:44;98863.72;;;0.18;82.88
67517;BME280;54359;59.124;37.910;2023-02-14T04:29:30;98865.31;;;0.16;82.83
67517;BME280;54359;59.124;37.910;2023-02-14T04:31:55;98870.34;;;0.14;82.61
67517;BME280;54359;59.124;37.910;2023-02-14T04:34:21;98891.28;;;0.10;82.69
67517;BME280;54359;59.124;37.910;2023-02-14T04:36:47;98874.50;;;0.12;82.75
67517;BME280;54359;59.124;37.910;2023-02-14T04:39:13;98889.69;;;0.14;82.96
67517;BME280;54359;59.124;37.910;2023-02-14T04:41:38;98884.63;;;0.14;82.82
67517;BME280;54359;59.124;37.910;2023-02-14T04:44:04;98903.19;;;0.14;82.88
67517;BME280;54359;59.124;37.910;2023-02-14T04:46:30;98899.78;;;0.14;82.94
67517;BME280;54359;59.124;37.910;2023-02-14T04:48:55;98889.59;;;0.11;82.68
67517;BME280;54359;59.124;37.910;2023-02-14T04:51:21;98904.00;;;0.13;82.59
67517;BME280;54359;59.124;37.910;2023-02-14T04:53:47;98905.66;;;0.13;82.95
67517;BME280;54359;59.124;37.910;2023-02-14T04:56:13;98915.78;;;0.13;82.76
67517;BME280;54359;59.124;37.910;2023-02-14T04:58:38;98917.38;;;0.11;82.55
67517;BME280;54359;59.124;37.910;2023-02-14T05:01:04;98910.56;;;0.08;82.55
67517;BME280;54359;59.124;37.910;2023-02-14T05:03:30;98918.84;;;0.04;82.79
67517;BME280;54359;59.124;37.910;2023-02-14T05:05:55;98929.88;;;0.06;82.79
67517;BME280;54359;59.124;37.910;2023-02-14T05:08:23;98921.16;;;-0.02;82.63
67517;BME280;54359;59.124;37.910;2023-02-14T05:10:49;98943.97;;;0.01;82.72
67517;BME280;54359;59.124;37.910;2023-02-14T05:13:15;98943.97;;;0.01;82.97
67517;BME280;54359;59.124;37.910;2023-02-14T05:15:43;98932.97;;;-0.01;82.97
67517;BME280;54359;59.124;37.910;2023-02-14T05:18:09;98940.59;;;0.01;83.11
67517;BME280;54359;59.124;37.910;2023-02-14T05:20:35;98947.28;;;-0.02;83.01
67517;BME280;54359;59.124;37.910;2023-02-14T05:23:01;98948.13;;;-0.01;82.54
67517;BME280;54359;59.124;37.910;2023-02-14T05:25:30;98953.81;;;-0.07;82.97
67517;BME280;54359;59.124;37.910;2023-02-14T05:27:57;98956.41;;;-0.05;82.66
67517;BME280;54359;59.124;37.910;2023-02-14T05:30:22;98960.44;;;-0.10;82.89
67517;BME280;54359;59.124;37.910;2023-02-14T05:32:52;98961.22;;;-0.11;82.82
67517;BME280;54359;59.124;37.910;2023-02-14T05:35:18;98982.69;;;0.00;82.82
67517;BME280;54359;59.124;37.910;2023-02-14T05:37:44;98982.69;;;0.00;82.60
67517;BME280;54359;59.124;37.910;2023-02-14T05:40:10;98981.66;;;-0.05;82.94
67517;BME280;54359;59.124;37.910;2023-02-14T05:42:38;98982.69;;;0.00;82.98
67517;BME280;54359;59.124;37.910;2023-02-14T05:45:06;98976.59;;;-0.05;82.84
67517;BME280;54359;59.124;37.910;2023-02-14T05:47:32;98986.16;;;0.02;83.03
67517;BME280;54359;59.124;37.910;2023-02-14T05:49:57;98980.28;;;0.03;83.15
67517;BME280;54359;59.124;37.910;2023-02-14T05:52:23;98992.97;;;0.05;83.12
67517;BME280;54359;59.124;37.910;2023-02-14T05:54:49;99005.66;;;0.06;82.96
67517;BME280;54359;59.124;37.910;2023-02-14T05:57:15;99006.50;;;0.07;83.33
67517;BME280;54359;59.124;37.910;2023-02-14T05:59:41;99000.75;;;0.11;82.96
67517;BME280;54359;59.124;37.910;2023-02-14T06:02:06;99001.78;;;0.16;82.88
67517;BME280;54359;59.124;37.910;2023-02-14T06:04:32;99009.56;;;0.22;82.77
67517;BME280;54359;59.124;37.910;2023-02-14T06:07:00;99005.50;;;0.26;82.87
67517;BME280;54359;59.124;37.910;2023-02-14T06:09:25;99020.94;;;0.33;82.69
67517;BME280;54359;59.124;37.910;2023-02-14T06:11:51;99012.66;;;0.37;82.85
67517;BME280;54359;59.124;37.910;2023-02-14T06:14:17;99015.13;;;0.36;82.57
67517;BME280;54359;59.124;37.910;2023-02-14T06:16:43;99037.09;;;0.37;82.95
67517;BME280;54359;59.124;37.910;2023-02-14T06:19:08;99037.09;;;0.37;82.50
67517;BME280;54359;59.124;37.910;2023-02-14T06:21:34;99026.78;;;0.32;82.73
67517;BME280;54359;59.124;37.910;2023-02-14T06:24:00;99048.75;;;0.33;82.75
67517;BME280;54359;59.124;37.910;2023-02-14T06:26:26;99044.44;;;0.31;82.48
67517;BME280;54359;59.124;37.910;2023-02-14T06:28:54;99044.59;;;0.35;82.67
67517;BME280;54359;59.124;37.910;2023-02-14T06:31:20;99059.88;;;0.38;82.60
67517;BME280;54359;59.124;37.910;2023-02-14T06:33:46;99052.50;;;0.45;83.18
67517;BME280;54359;59.124;37.910;2023-02-14T06:36:12;99069.25;;;0.65;83.28
67517;BME280;54359;59.124;37.910;2023-02-14T06:38:37;99072.03;;;0.73;83.47
67517;BME280;54359;59.124;37.910;2023-02-14T06:41:07;99063.88;;;0.80;83.08
67517;BME280;54359;59.124;37.910;2023-02-14T06:43:34;99064.94;;;0.87;83.29
67517;BME280;54359;59.124;37.910;2023-02-14T06:46:00;99065.16;;;0.93;83.12
67517;BME280;54359;59.124;37.910;2023-02-14T06:48:26;99078.00;;;0.99;82.40
67517;BME280;54359;59.124;37.910;2023-02-14T06:50:52;99083.84;;;0.96;82.52
67517;BME280;54359;59.124;37.910;2023-02-14T06:53:19;99081.13;;;0.92;82.86
67517;BME280;54359;59.124;37.910;2023-02-14T06:55:45;99082.50;;;0.82;82.64
67517;BME280;54359;59.124;37.910;2023-02-14T06:58:11;99093.34;;;0.79;82.13
67517;BME280;54359;59.124;37.910;2023-02-14T07:00:37;99094.97;;;0.77;82.81
67517;BME280;54359;59.124;37.910;2023-02-14T07:03:05;99106.81;;;0.78;82.22
67517;BME280;54359;59.124;37.910;2023-02-14T07:05:31;99100.09;;;0.79;82.78
67517;BME280;54359;59.124;37.910;2023-02-14T07:07:58;99095.94;;;0.81;82.42
67517;BME280;54359;59.124;37.910;2023-02-14T07:10:24;99105.34;;;0.85;82.84
67517;BME280;54359;59.124;37.910;2023-02-14T07:12:49;99100.03;;;0.77;82.53
67517;BME280;54359;59.124;37.910;2023-02-14T07:15:15;99090.78;;;0.78;82.45
67517;BME280;54359;59.124;37.910;2023-02-14T07:17:41;99104.09;;;0.98;82.76
67517;BME280;54359;59.124;37.910;2023-02-14T07:20:10;99114.44;;;1.04;82.58
67517;BME280;54359;59.124;37.910;2023-02-14T07:22:37;99111.38;;;1.13;83.09
67517;BME280;54359;59.124;37.910;2023-02-14T07:25:07;99123.53;;;1.23;83.10
67517;BME280;54359;59.124;37.910;2023-02-14T07:27:32;99121.88;;;1.24;82.66
67517;BME280;54359;59.124;37.910;2023-02-14T07:29:58;99100.59;;;1.18;82.42
67517;BME280;54359;59.124;37.910;2023-02-14T07:32:24;99127.50;;;1.16;81.89
67517;BME280;54359;59.124;37.910;2023-02-14T07:34:50;99131.22;;;1.00;82.43
67517;BME280;54359;59.124;37.910;2023-02-14T07:37:16;99152.25;;;0.99;82.29
67517;BME280;54359;59.124;37.910;2023-02-14T07:39:43;99150.41;;;0.95;82.64
67517;BME280;54359;59.124;37.910;2023-02-14T07:42:09;99142.31;;;0.82;82.23
67517;BME280;54359;59.124;37.910;2023-02-14T07:44:37;99158.41;;;0.84;82.59
67517;BME280;54359;59.124;37.910;2023-02-14T07:47:04;99148.91;;;0.76;82.76
67517;BME280;54359;59.124;37.910;2023-02-14T07:49:31;99158.06;;;0.97;82.48
67517;BME280;54359;59.124;37.910;2023-02-14T07:51:57;99159.63;;;1.17;82.81
67517;BME280;54359;59.124;37.910;2023-02-14T07:54:25;99164.13;;;1.26;82.51
67517;BME280;54359;59.124;37.910;2023-02-14T07:56:50;99170.81;;;1.24;81.79
67517;BME280;54359;59.124;37.910;2023-02-14T07:59:17;99176.50;;;1.17;82.50
67517;BME280;54359;59.124;37.910;2023-02-14T08:01:44;99197.59;;;1.17;82.09
67517;BME280;54359;59.124;37.910;2023-02-14T08:04:10;99171.00;;;1.05;82.40
67517;BME280;54359;59.124;37.910;2023-02-14T08:06:39;99197.44;;;1.13;82.71
67517;BME280;54359;59.124;37.910;2023-02-14T08:09:05;99195.00;;;1.16;82.53
67517;BME280;54359;59.124;37.910;2023-02-14T08:11:31;99200.00;;;1.14;82.17
67517;BME280;54359;59.124;37.910;2023-02-14T08:14:21;99203.41;;;1.15;82.39
67517;BME280;54359;59.124;37.910;2023-02-14T08:16:47;99204.28;;;1.15;82.45
67517;BME280;54359;59.124;37.910;2023-02-14T08:19:16;99215.75;;;1.30;83.19
67517;BME280;54359;59.124;37.910;2023-02-14T08:21:41;99224.63;;;1.43;83.19
67517;BME280;54359;59.124;37.910;2023-02-14T08:24:07;99226.66;;;1.53;82.29
67517;BME280;54359;59.124;37.910;2023-02-14T08:26:33;99226.78;;;1.56;82.57
67517;BME280;54359;59.124;37.910;2023-02-14T08:29:00;99237.63;;;1.53;82.22
67517;BME280;54359;59.124;37.910;2023-02-14T08:31:29;99241.91;;;1.54;82.24
67517;BME280;54359;59.124;37.910;2023-02-14T08:33:55;99243.69;;;1.57;82.74
67517;BME280;54359;59.124;37.910;2023-02-14T08:36:21;99261.13;;;1.73;82.79
67517;BME280;54359;59.124;37.910;2023-02-14T08:38:47;99268.03;;;1.77;82.90
67517;BME280;54359;59.124;37.910;2023-02-14T08:41:17;99271.41;;;1.78;82.38
67517;BME280;54359;59.124;37.910;2023-02-14T08:43:43;99266.84;;;1.68;82.54
67517;BME280;54359;59.124;37.910;2023-02-14T08:46:10;99283.78;;;1.69;82.09
67517;BME280;54359;59.124;37.910;2023-02-14T08:48:37;99267.50;;;1.62;82.11
67517;BME280;54359;59.124;37.910;2023-02-14T08:51:06;99284.56;;;1.68;81.84
67517;BME280;54359;59.124;37.910;2023-02-14T08:53:33;99286.31;;;1.69;81.95
67517;BME280;54359;59.124;37.910;2023-02-14T08:56:08;99289.69;;;1.69;82.54
67517;BME280;54359;59.124;37.910;2023-02-14T08:58:34;99280.97;;;1.61;82.00
67517;BME280;54359;59.124;37.910;2023-02-14T09:01:10;99301.28;;;1.63;82.24
67517;BME280;54359;59.124;37.910;2023-02-14T09:04:04;99297.72;;;1.57;82.01
67517;BME280;54359;59.124;37.910;2023-02-14T09:07:03;99315.78;;;1.67;81.68
67517;BME280;54359;59.124;37.910;2023-02-14T09:09:30;99316.38;;;1.59;81.54
67517;BME280;54359;59.124;37.910;2023-02-14T09:11:56;99324.94;;;1.63;81.98
67517;BME280;54359;59.124;37.910;2023-02-14T09:14:22;99318.16;;;1.62;82.00
67517;BME280;54359;59.124;37.910;2023-02-14T09:16:49;99327.69;;;1.69;81.88
67517;BME280;54359;59.124;37.910;2023-02-14T09:19:15;99341.22;;;1.70;82.03
67517;BME280;54359;59.124;37.910;2023-02-14T09:21:41;99349.88;;;1.75;81.42
67517;BME280;54359;59.124;37.910;2023-02-14T09:24:06;99353.72;;;1.65;81.71
67517;BME280;54359;59.124;37.910;2023-02-14T09:26:32;99345.22;;;1.63;81.81
67517;BME280;54359;59.124;37.910;2023-02-14T09:29:01;99367.16;;;1.63;82.24
67517;BME280;54359;59.124;37.910;2023-02-14T09:31:27;99363.88;;;1.65;81.71
67517;BME280;54359;59.124;37.910;2023-02-14T09:33:52;99370.13;;;1.75;82.39
67517;BME280;54359;59.124;37.910;2023-02-14T09:36:18;99374.56;;;1.80;81.70
67517;BME280;54359;59.124;37.910;2023-02-14T09:38:44;99373.03;;;1.86;81.69
67517;BME280;54359;59.124;37.910;2023-02-14T09:46:49;99398.13;;;1.55;81.64
67517;BME280;54359;59.124;37.910;2023-02-14T09:49:21;99407.22;;;1.50;81.15
67517;BME280;54359;59.124;37.910;2023-02-14T09:51:52;99387.28;;;1.35;81.43
67517;BME280;54359;59.124;37.910;2023-02-14T09:54:20;99404.75;;;1.52;81.34
67517;BME280;54359;59.124;37.910;2023-02-14T09:57:25;99410.00;;;1.56;81.75
67517;BME280;54359;59.124;37.910;2023-02-14T10:00:13;99416.97;;;1.62;81.81
67517;BME280;54359;59.124;37.910;2023-02-14T10:03:00;99419.50;;;1.62;81.23
67517;BME280;54359;59.124;37.910;2023-02-14T10:05:52;99426.56;;;1.71;81.34
67517;BME280;54359;59.124;37.910;2023-02-14T10:11:38;99450.59;;;1.82;81.41
67517;BME280;54359;59.124;37.910;2023-02-14T10:14:11;99447.97;;;1.79;80.81
67517;BME280;54359;59.124;37.910;2023-02-14T10:16:43;99467.84;;;1.68;81.08
67517;BME280;54359;59.124;37.910;2023-02-14T10:19:18;99466.88;;;1.65;81.54
67517;BME280;54359;59.124;37.910;2023-02-14T10:21:48;99477.94;;;1.67;81.06
67517;BME280;54359;59.124;37.910;2023-02-14T10:26:45;99486.97;;;1.60;81.19
67517;BME280;54359;59.124;37.910;2023-02-14T10:29:15;99487.00;;;1.61;81.48
67517;BME280;54359;59.124;37.910;2023-02-14T10:31:50;99497.28;;;1.65;81.65
67517;BME280;54359;59.124;37.910;2023-02-14T10:42:23;99511.25;;;1.55;81.14
67517;BME280;54359;59.124;37.910;2023-02-14T10:48:08;99513.00;;;1.56;81.82
67517;BME280;54359;59.124;37.910;2023-02-14T10:53:17;99515.63;;;1.59;81.23
67517;BME280;54359;59.124;37.910;2023-02-14T10:56:01;99533.13;;;1.53;81.10
67517;BME280;54359;59.124;37.910;2023-02-14T10:58:32;99524.41;;;1.46;81.38
67517;BME280;54359;59.124;37.910;2023-02-14T11:01:00;99554.31;;;1.55;81.36
67517;BME280;54359;59.124;37.910;2023-02-14T11:03:28;99532.44;;;1.57;81.23
67517;BME280;54359;59.124;37.910;2023-02-14T11:05:54;99545.34;;;1.63;81.48
67517;BME280;54359;59.124;37.910;2023-02-14T11:08:31;99567.53;;;1.69;81.62
67517;BME280;54359;59.124;37.910;2023-02-14T11:11:09;99564.50;;;1.56;80.84
67517;BME280;54359;59.124;37.910;2023-02-14T11:13:38;99562.69;;;1.33;80.68
67517;BME280;54359;59.124;37.910;2023-02-14T11:19:08;99592.75;;;0.65;80.90
67517;BME280;54359;59.124;37.910;2023-02-14T11:21:38;99577.59;;;0.46;81.08
67517;BME280;54359;59.124;37.910;2023-02-14T11:24:16;99603.28;;;0.35;81.78
67517;BME280;54359;59.124;37.910;2023-02-14T11:26:47;99599.88;;;0.35;81.66
67517;BME280;54359;59.124;37.910;2023-02-14T11:32:15;99608.56;;;0.59;81.89
67517;BME280;54359;59.124;37.910;2023-02-14T11:34:50;99615.53;;;0.65;81.63
67517;BME280;54359;59.124;37.910;2023-02-14T11:37:29;99639.84;;;0.62;81.05
67517;BME280;54359;59.124;37.910;2023-02-14T11:39:58;99636.22;;;0.56;81.28
67517;BME280;54359;59.124;37.910;2023-02-14T11:42:51;99633.44;;;0.50;81.58
67517;BME280;54359;59.124;37.910;2023-02-14T11:45:34;99642.75;;;0.51;81.07
67517;BME280;54359;59.124;37.910;2023-02-14T11:48:16;99650.53;;;0.56;81.19
67517;BME280;54359;59.124;37.910;2023-02-14T11:50:43;99659.66;;;0.52;81.29
67517;BME280;54359;59.124;37.910;2023-02-14T11:53:22;99653.72;;;0.52;80.85
67517;BME280;54359;59.124;37.910;2023-02-14T11:55:53;99653.25;;;0.41;80.56
67517;BME280;54359;59.124;37.910;2023-02-14T11:58:31;99667.59;;;0.42;80.89
67517;BME280;54359;59.124;37.910;2023-02-14T12:00:58;99670.09;;;0.23;80.82
67517;BME280;54359;59.124;37.910;2023-02-14T12:03:26;99697.25;;;0.27;80.46
67517;BME280;54359;59.124;37.910;2023-02-14T12:05:53;99704.56;;;0.21;80.54
67517;BME280;54359;59.124;37.910;2023-02-14T12:08:30;99695.78;;;0.14;80.63
67517;BME280;54359;59.124;37.910;2023-02-14T12:11:03;99695.94;;;0.17;80.92
67517;BME280;54359;59.124;37.910;2023-02-14T12:13:29;99720.00;;;0.27;80.81
67517;BME280;54359;59.124;37.910;2023-02-14T12:15:57;99743.41;;;0.23;80.56
67517;BME280;54359;59.124;37.910;2023-02-14T12:24:01;99741.28;;;-0.04;80.33
67517;BME280;54359;59.124;37.910;2023-02-14T12:26:39;99758.72;;;-0.09;79.98
67517;BME280;54359;59.124;37.910;2023-02-14T12:32:25;99757.25;;;-0.22;80.12
67517;BME280;54359;59.124;37.910;2023-02-14T12:40:56;99777.47;;;-0.38;80.09
67517;BME280;54359;59.124;37.910;2023-02-14T12:46:30;99795.16;;;-0.54;79.68
67517;BME280;54359;59.124;37.910;2023-02-14T13:05:23;99826.94;;;-0.58;79.50
67517;BME280;54359;59.124;37.910;2023-02-14T13:16:33;99856.56;;;-0.70;79.27
67517;BME280;54359;59.124;37.910;2023-02-14T13:19:08;99862.34;;;-0.73;79.22
67517;BME280;54359;59.124;37.910;2023-02-14T13:21:36;99853.50;;;-0.81;79.33
67517;BME280;54359;59.124;37.910;2023-02-14T13:24:16;99873.22;;;-0.74;79.33
67517;BME280;54359;59.124;37.910;2023-02-14T13:26:45;99868.81;;;-0.78;78.95
67517;BME280;54359;59.124;37.910;2023-02-14T13:29:15;99883.16;;;-0.77;78.85
67517;BME280;54359;59.124;37.910;2023-02-14T13:31:42;99897.34;;;-0.79;79.00
67517;BME280;54359;59.124;37.910;2023-02-14T13:34:27;99884.63;;;-0.81;78.89
67517;BME280;54359;59.124;37.910;2023-02-14T13:36:57;99898.81;;;-0.83;78.72
67517;BME280;54359;59.124;37.910;2023-02-14T13:41:59;99913.97;;;-0.83;78.96
67517;BME280;54359;59.124;37.910;2023-02-14T13:44:47;99905.72;;;-0.80;78.94
67517;BME280;54359;59.124;37.910;2023-02-14T13:47:24;99910.81;;;-0.78;79.00
67517;BME280;54359;59.124;37.910;2023-02-14T13:49:58;99926.66;;;-0.81;78.85
67517;BME280;54359;59.124;37.910;2023-02-14T13:52:45;99934.00;;;-0.86;78.77
67517;BME280;54359;59.124;37.910;2023-02-14T13:55:16;99944.94;;;-0.85;78.83
67517;BME280;54359;59.124;37.910;2023-02-14T13:57:43;99934.75;;;-0.87;78.74
67517;BME280;54359;59.124;37.910;2023-02-14T14:02:51;99954.88;;;-0.88;78.58
67517;BME280;54359;59.124;37.910;2023-02-14T14:10:49;99946.53;;;-0.87;78.57
67517;BME280;54359;59.124;37.910;2023-02-14T14:18:54;99968.28;;;-0.89;78.81
67517;BME280;54359;59.124;37.910;2023-02-14T14:21:24;99958.09;;;-0.91;78.50
67517;BME280;54359;59.124;37.910;2023-02-14T14:26:44;99949.94;;;-1.02;78.94
67517;BME280;54359;59.124;37.910;2023-02-14T14:29:24;99970.97;;;-1.01;78.27
67517;BME280;54359;59.124;37.910;2023-02-14T14:31:51;99985.09;;;-1.05;78.74
67517;BME280;54359;59.124;37.910;2023-02-14T14:34:25;99987.31;;;-1.09;78.32
67517;BME280;54359;59.124;37.910;2023-02-14T14:37:05;99987.16;;;-1.12;78.25
67517;BME280;54359;59.124;37.910;2023-02-14T14:39:34;99976.72;;;-1.18;78.23
67517;BME280;54359;59.124;37.910;2023-02-14T14:42:07;99986.38;;;-1.11;78.42
67517;BME280;54359;59.124;37.910;2023-02-14T14:44:34;99977.16;;;-1.26;77.93
67517;BME280;54359;59.124;37.910;2023-02-14T14:47:01;100010.97;;;-1.22;78.16
67517;BME280;54359;59.124;37.910;2023-02-14T14:49:27;99992.81;;;-1.31;78.09
67517;BME280;54359;59.124;37.910;2023-02-14T14:51:54;100013.75;;;-1.32;77.97
67517;BME280;54359;59.124;37.910;2023-02-14T14:54:22;100011.13;;;-1.34;78.42
67517;BME280;54359;59.124;37.910;2023-02-14T14:56:58;100014.97;;;-1.40;78.28
67517;BME280;54359;59.124;37.910;2023-02-14T14:59:35;100006.16;;;-1.47;78.29
67517;BME280;54359;59.124;37.910;2023-02-14T15:05:40;100025.00;;;-1.55;77.92
67517;BME280;54359;59.124;37.910;2023-02-14T15:13:46;100037.75;;;-1.67;78.05
67517;BME280;54359;59.124;37.910;2023-02-14T15:16:37;100035.06;;;-1.70;78.21
67517;BME280;54359;59.124;37.910;2023-02-14T15:19:14;100032.16;;;-1.76;77.88
67517;BME280;54359;59.124;37.910;2023-02-14T15:21:44;100025.56;;;-1.74;77.89
67517;BME280;54359;59.124;37.910;2023-02-14T15:24:18;100047.28;;;-1.76;77.91
67517;BME280;54359;59.124;37.910;2023-02-14T15:26:46;100051.25;;;-1.80;77.87
67517;BME280;54359;59.124;37.910;2023-02-14T15:31:48;100067.72;;;-1.85;78.24
67517;BME280;54359;59.124;37.910;2023-02-14T15:34:14;100067.72;;;-1.85;78.35
67517;BME280;54359;59.124;37.910;2023-02-14T15:36:46;100067.66;;;-1.87;78.47
67517;BME280;54359;59.124;37.910;2023-02-14T15:39:39;100070.78;;;-1.91;77.76
67517;BME280;54359;59.124;37.910;2023-02-14T15:42:26;100070.84;;;-1.89;78.50